Time;durP1;ratioP1;P1;durP2;ratioP2;P2;SDS_P1;SDS_P2;PMS_P1;PMS_P2;Temp;Humidity;BMP_temperature;BMP_pressure;BME280_temperature;BME280_humidity;BME280_pressure;Samples;Min_cycle;Max_cycle;Signal;HPM_P1;HPM_P2
2022/11/17 00:02:19;;;;;;;2.55;1.20;;;5.70;99.90;;;;;;5076253;28;20047;-65
2022/11/17 00:04:45;;;;;;;;;;;5.70;99.90;;;;;;5079911;28;20399;-65
2022/11/17 00:07:12;;;;;;;3.03;1.58;;;5.70;99.90;;;;;;5074501;28;19930;-65
2022/11/17 00:09:40;;;;;;;2.67;1.42;;;5.70;99.90;;;;;;5076707;28;20040;-65
2022/11/17 00:14:58;;;;;;;3.60;1.50;;;5.80;99.90;;;;;;5077582;28;20155;-65
2022/11/17 00:17:25;;;;;;;;;;;5.80;99.90;;;;;;5078442;28;20040;-65
2022/11/17 00:22:37;;;;;;;1.63;1.20;;;5.90;99.90;;;;;;5080405;28;20440;-65
2022/11/17 00:25:04;;;;;;;1.90;1.00;;;5.90;99.90;;;;;;5079053;28;20512;-65
2022/11/17 00:27:31;;;;;;;2.30;1.30;;;5.90;99.90;;;;;;5077852;28;20108;-65
2022/11/17 00:29:57;;;;;;;3.03;1.00;;;5.90;99.90;;;;;;5078948;28;20603;-65
2022/11/17 00:35:09;;;;;;;1.02;0.90;;;6.00;99.90;;;;;;5076947;28;20067;-65
2022/11/17 00:38:14;;;;;;;1.10;1.00;;;6.10;99.90;;;;;;5083344;28;20521;-65
2022/11/17 00:40:25;;;;;;;2.95;1.80;;;6.10;99.90;;;;;;5076563;28;20130;-65
2022/11/17 00:42:52;;;;;;;;;;;6.10;99.90;;;;;;5076517;28;20058;-65
2022/11/17 00:45:18;;;;;;;2.40;1.45;;;6.10;99.90;;;;;;5077723;28;19932;-65
2022/11/17 00:47:46;;;;;;;2.97;1.65;;;6.10;99.90;;;;;;5078737;28;20051;-65
2022/11/17 00:50:13;;;;;;;2.08;1.65;;;6.00;99.90;;;;;;5079326;28;20048;-65
2022/11/17 00:52:39;;;;;;;2.03;1.27;;;6.00;99.90;;;;;;5080352;28;20048;-65
2022/11/17 00:55:06;;;;;;;2.53;1.70;;;6.00;99.90;;;;;;5077107;28;20051;-65
2022/11/17 00:57:33;;;;;;;4.20;1.58;;;6.00;99.90;;;;;;5074151;28;20756;-65
2022/11/17 01:00:00;;;;;;;5.18;1.80;;;6.00;99.90;;;;;;5076662;28;20055;-65
2022/11/17 01:02:27;;;;;;;4.03;2.38;;;6.00;99.90;;;;;;5077532;28;20384;-65
2022/11/17 01:04:53;;;;;;;2.60;1.73;;;6.10;99.90;;;;;;5080050;28;20537;-65
2022/11/17 01:07:21;;;;;;;3.65;2.05;;;6.10;99.90;;;;;;5079243;28;20564;-65
2022/11/17 01:09:48;;;;;;;4.40;2.17;;;6.10;99.90;;;;;;5079589;28;20067;-65
2022/11/17 01:12:15;;;;;;;3.25;1.77;;;6.20;99.90;;;;;;5077644;28;20112;-65
2022/11/17 01:14:41;;;;;;;3.10;1.67;;;6.20;99.90;;;;;;5082133;28;20043;-65
2022/11/17 01:17:08;;;;;;;;;;;6.20;99.90;;;;;;5082660;28;20494;-65
2022/11/17 01:19:35;;;;;;;6.10;2.13;;;6.20;99.90;;;;;;5078317;28;20022;-65
2022/11/17 01:22:01;;;;;;;;;;;6.30;99.90;;;;;;5081408;28;20105;-65
2022/11/17 01:24:28;;;;;;;3.28;2.25;;;6.30;99.90;;;;;;5081192;28;19930;-65
2022/11/17 01:26:55;;;;;;;3.67;1.90;;;6.30;99.90;;;;;;5085774;28;20070;-66
2022/11/17 01:29:21;;;;;;;3.83;1.58;;;6.30;99.90;;;;;;5079709;28;20047;-65
2022/11/17 01:31:50;;;;;;;3.35;2.25;;;6.30;99.90;;;;;;5083808;28;20119;-65
2022/11/17 01:34:17;;;;;;;2.65;1.70;;;6.30;99.90;;;;;;5076405;28;20159;-65
2022/11/17 01:39:31;;;;;;;4.90;2.47;;;6.30;99.90;;;;;;5077762;28;20044;-65
2022/11/17 01:42:02;;;;;;;5.47;2.20;;;6.30;99.90;;;;;;5083176;28;20350;-65
2022/11/17 01:44:50;;;;;;;5.10;3.08;;;6.30;99.90;;;;;;5079252;28;20059;-65
2022/11/17 01:47:40;;;;;;;2.38;2.17;;;6.30;99.90;;;;;;5074896;28;20326;-65
2022/11/17 01:50:24;;;;;;;3.65;2.65;;;6.30;99.90;;;;;;5082180;28;20136;-65
2022/11/17 01:52:54;;;;;;;15.60;3.10;;;6.30;99.90;;;;;;5078693;28;20131;-65
2022/11/17 01:55:24;;;;;;;3.63;1.88;;;6.30;99.90;;;;;;5080846;28;20044;-65
2022/11/17 01:58:07;;;;;;;5.32;1.98;;;6.30;99.90;;;;;;5079504;28;20062;-65
2022/11/17 02:00:34;;;;;;;2.38;1.73;;;6.40;99.90;;;;;;5078490;28;20370;-64
2022/11/17 02:03:01;;;;;;;;;;;6.30;99.90;;;;;;5084326;28;20068;-65
2022/11/17 02:05:31;;;;;;;2.42;1.90;;;6.40;99.90;;;;;;5078843;28;19924;-65
2022/11/17 02:08:00;;;;;;;7.82;2.53;;;6.40;99.90;;;;;;5078539;28;20413;-65
2022/11/17 02:10:30;;;;;;;4.85;1.90;;;6.40;99.90;;;;;;5082014;28;20040;-65
2022/11/17 02:12:58;;;;;;;6.65;1.90;;;6.40;99.90;;;;;;5080144;28;20046;-65
2022/11/17 02:15:27;;;;;;;2.45;1.35;;;6.40;99.90;;;;;;5076844;28;20046;-65
2022/11/17 02:17:55;;;;;;;2.28;1.58;;;6.40;99.90;;;;;;5081681;28;20051;-65
2022/11/17 02:20:39;;;;;;;2.22;1.33;;;6.40;99.90;;;;;;5077813;28;20089;-64
2022/11/17 02:23:24;;;;;;;2.10;1.15;;;6.40;99.90;;;;;;5078904;28;20050;-64
2022/11/17 02:26:00;;;;;;;2.42;1.08;;;6.50;99.90;;;;;;5084194;28;20044;-65
2022/11/17 02:28:31;;;;;;;2.30;1.30;;;6.50;99.90;;;;;;5079325;28;20076;-65
2022/11/17 02:31:42;;;;;;;2.45;1.40;;;6.50;99.90;;;;;;5077387;28;20031;-65
2022/11/17 02:34:26;;;;;;;2.88;1.13;;;6.50;99.90;;;;;;5051176;28;20142;-65
2022/11/17 02:36:56;;;;;;;4.78;1.15;;;6.40;99.90;;;;;;5076894;28;20063;-65
2022/11/17 02:39:59;;;;;;;0.77;0.70;;;6.40;99.90;;;;;;5080472;28;20052;-66
2022/11/17 02:45:37;;;;;;;1.13;1.00;;;6.50;99.90;;;;;;5074983;28;20565;-65
2022/11/17 02:48:10;;;;;;;1.15;0.90;;;6.50;99.90;;;;;;5077880;28;20510;-66
2022/11/17 02:50:39;;;;;;;0.82;0.82;;;6.50;99.90;;;;;;5076144;28;20043;-65
2022/11/17 02:53:06;;;;;;;1.85;0.88;;;6.50;99.90;;;;;;5076976;28;20094;-65
2022/11/17 02:55:34;;;;;;;1.10;0.88;;;6.60;99.90;;;;;;5077434;28;20040;-65
2022/11/17 02:58:01;;;;;;;4.30;0.98;;;6.60;99.90;;;;;;5081582;28;20055;-65
2022/11/17 03:00:32;;;;;;;5.97;1.38;;;6.50;99.90;;;;;;5082517;28;20040;-65
2022/11/17 03:03:20;;;;;;;0.95;0.85;;;6.40;99.90;;;;;;5061046;28;20048;-65
2022/11/17 03:05:55;;;;;;;;;;;6.30;99.90;;;;;;5080047;28;20129;-65
2022/11/17 03:08:40;;;;;;;0.70;0.70;;;6.30;99.90;;;;;;5078350;28;19985;-65
2022/11/17 03:11:07;;;;;;;1.15;0.73;;;6.30;99.90;;;;;;5079713;28;20032;-65
2022/11/17 03:13:48;;;;;;;1.27;0.80;;;6.30;99.90;;;;;;5071928;28;20043;-65
2022/11/17 03:16:49;;;;;;;0.80;0.80;;;6.30;99.90;;;;;;5076337;28;20156;-65
2022/11/17 03:19:46;;;;;;;0.60;0.60;;;6.30;99.90;;;;;;5073057;28;20055;-65
2022/11/17 03:22:30;;;;;;;0.80;0.70;;;6.40;99.90;;;;;;5066279;28;20048;-65
2022/11/17 03:25:05;;;;;;;1.83;0.90;;;6.50;99.90;;;;;;5077859;28;20043;-65
2022/11/17 03:27:37;;;;;;;2.80;1.13;;;6.60;99.90;;;;;;5077833;28;20486;-65
2022/11/17 03:30:08;;;;;;;1.92;1.40;;;6.60;99.90;;;;;;5079625;28;20572;-65
2022/11/17 03:32:38;;;;;;;1.05;0.80;;;6.70;99.90;;;;;;5076656;28;20437;-64
2022/11/17 03:35:09;;;;;;;1.50;1.00;;;6.70;99.90;;;;;;5076509;28;20070;-64
2022/11/17 03:37:42;;;;;;;2.58;0.80;;;6.80;99.90;;;;;;5057093;28;20100;-65
2022/11/17 03:40:12;;;;;;;1.58;1.10;;;6.80;99.90;;;;;;5076098;28;20043;-65
2022/11/17 03:42:51;;;;;;;4.95;2.13;;;6.90;99.90;;;;;;5076357;28;20046;-64
2022/11/17 03:45:20;;;;;;;1.63;1.52;;;6.90;99.90;;;;;;5076395;28;20190;-64
2022/11/17 03:47:55;;;;;;;2.00;1.80;;;6.90;99.90;;;;;;5079376;28;20278;-64
2022/11/17 03:50:36;;;;;;;1.75;1.65;;;6.80;99.90;;;;;;5077888;28;20044;-65
2022/11/17 03:53:04;;;;;;;1.98;1.60;;;6.80;99.90;;;;;;5077499;28;20390;-64
2022/11/17 03:56:00;;;;;;;5.15;1.98;;;6.80;99.90;;;;;;5076344;28;20252;-64
2022/11/17 03:58:31;;;;;;;4.10;1.98;;;6.70;99.90;;;;;;5074252;28;20233;-64
2022/11/17 04:01:01;;;;;;;6.50;2.47;;;6.70;99.90;;;;;;5076613;28;20059;-64
2022/11/17 04:03:31;;;;;;;3.95;2.08;;;6.70;99.90;;;;;;5071947;28;20059;-64
2022/11/17 04:05:58;;;;;;;3.65;2.10;;;6.60;99.90;;;;;;5078746;28;20495;-65
2022/11/17 04:08:28;;;;;;;2.13;1.92;;;6.60;99.90;;;;;;5074781;28;20149;-64
2022/11/17 04:16:28;;;;;;;5.95;2.30;;;6.50;99.90;;;;;;5075589;28;20440;-65
2022/11/17 04:18:55;;;;;;;4.45;3.30;;;6.50;99.90;;;;;;5078664;28;20040;-64
2022/11/17 04:21:25;;;;;;;6.63;3.45;;;6.40;99.90;;;;;;5076184;28;20142;-64
2022/11/17 04:23:51;;;;;;;4.88;2.70;;;6.40;99.90;;;;;;5077585;28;20423;-65
2022/11/17 04:29:03;;;;;;;3.38;2.05;;;6.40;99.90;;;;;;5075426;28;20138;-65
2022/11/17 04:31:30;;;;;;;2.28;2.00;;;6.30;99.90;;;;;;5080362;28;20578;-65
2022/11/17 04:34:00;;;;;;;3.38;2.40;;;6.30;99.90;;;;;;5079243;28;20055;-64
2022/11/17 04:36:33;;;;;;;2.30;2.08;;;6.30;99.90;;;;;;5078681;28;20039;-64
2022/11/17 04:39:00;;;;;;;10.73;3.13;;;6.30;99.90;;;;;;5077512;28;20125;-64
2022/11/17 04:44:16;;;;;;;8.43;2.70;;;6.30;99.90;;;;;;5084424;28;20292;-64
2022/11/17 04:46:44;;;;;;;2.28;2.08;;;6.30;99.90;;;;;;5078958;28;20278;-64
2022/11/17 04:49:12;;;;;;;6.07;1.80;;;6.30;99.90;;;;;;5083034;28;20367;-64
2022/11/17 04:51:39;;;;;;;4.32;1.70;;;6.30;99.90;;;;;;5079916;28;20044;-64
2022/11/17 04:54:08;;;;;;;3.65;2.10;;;6.30;99.90;;;;;;5080716;28;20072;-64
2022/11/17 04:56:35;;;;;;;2.42;1.90;;;6.30;99.90;;;;;;5081137;28;20512;-64
2022/11/17 04:59:02;;;;;;;5.03;1.83;;;6.40;99.90;;;;;;5082304;28;20170;-64
2022/11/17 05:01:30;;;;;;;2.53;1.30;;;6.40;99.90;;;;;;5082842;28;20039;-64
2022/11/17 05:03:59;;;;;;;3.45;1.85;;;6.40;99.90;;;;;;5077299;28;20123;-64
2022/11/17 05:06:28;;;;;;;7.30;1.55;;;6.40;99.90;;;;;;5084446;28;20040;-64
2022/11/17 05:08:55;;;;;;;4.72;1.50;;;6.40;99.90;;;;;;5080805;28;20412;-65
2022/11/17 05:14:10;;;;;;;2.72;1.42;;;6.40;99.90;;;;;;5081178;28;20122;-65
2022/11/17 05:19:26;;;;;;;2.83;1.90;;;6.40;99.90;;;;;;5083111;28;20740;-65
2022/11/17 05:21:53;;;;;;;1.98;1.25;;;6.40;99.90;;;;;;5079430;28;20043;-65
2022/11/17 05:24:19;;;;;;;;;;;6.40;99.90;;;;;;5079809;28;20491;-64
2022/11/17 05:26:47;;;;;;;7.97;1.50;;;6.40;99.90;;;;;;5082699;28;19927;-64
2022/11/17 05:29:17;;;;;;;3.70;1.70;;;6.40;99.90;;;;;;5085264;28;20086;-65
2022/11/17 05:31:44;;;;;;;2.53;1.40;;;6.40;99.90;;;;;;5081551;28;20441;-64
2022/11/17 05:34:13;;;;;;;3.20;1.75;;;6.40;99.90;;;;;;5078272;28;20044;-65
2022/11/17 05:36:40;;;;;;;1.70;1.30;;;6.40;99.90;;;;;;5079949;28;20049;-65
2022/11/17 05:39:08;;;;;;;11.45;1.38;;;6.50;99.90;;;;;;5080883;28;20433;-64
2022/11/17 05:41:38;;;;;;;4.18;1.40;;;6.50;99.90;;;;;;5061972;28;20224;-65
2022/11/17 05:44:05;;;;;;;3.85;1.65;;;6.50;99.90;;;;;;5062266;28;20048;-65
2022/11/17 05:46:31;;;;;;;2.53;1.63;;;6.50;99.90;;;;;;5076124;28;20338;-64
2022/11/17 05:48:58;;;;;;;1.70;1.20;;;6.60;99.90;;;;;;5079650;28;20654;-65
2022/11/17 05:51:25;;;;;;;8.38;2.55;;;6.60;99.90;;;;;;5082618;28;20205;-65
2022/11/17 05:53:51;;;;;;;;;;;6.60;99.90;;;;;;5079295;28;20040;-65
2022/11/17 05:56:40;;;;;;;1.05;0.95;;;6.70;99.90;;;;;;5081520;28;19946;-65
2022/11/17 05:59:25;;;;;;;3.25;1.33;;;6.70;99.90;;;;;;5079378;28;20044;-64
2022/11/17 06:02:08;;;;;;;1.75;1.38;;;6.70;99.90;;;;;;5065592;28;20196;-65
2022/11/17 06:04:35;;;;;;;1.30;1.08;;;6.70;99.90;;;;;;5080149;28;20089;-65
2022/11/17 06:07:02;;;;;;;1.80;1.60;;;6.70;99.90;;;;;;5076059;28;20053;-65
2022/11/17 06:09:35;;;;;;;1.83;1.73;;;6.70;99.90;;;;;;5083303;28;20051;-65
2022/11/17 06:12:02;;;;;;;1.33;1.10;;;6.70;99.90;;;;;;5079236;28;20358;-49
2022/11/17 06:14:33;;;;;;;1.95;1.75;;;6.70;99.90;;;;;;5081341;28;20054;-58
2022/11/17 06:17:05;;;;;;;8.43;3.22;;;6.70;99.90;;;;;;5076448;28;20093;-53
2022/11/17 06:19:41;;;;;;;3.30;1.90;;;6.60;99.90;;;;;;5084487;28;20479;-52
2022/11/17 06:22:08;;;;;;;2.70;1.90;;;6.60;99.90;;;;;;5082154;28;20488;-52
2022/11/17 06:24:42;;;;;;;3.08;2.38;;;6.60;99.90;;;;;;5074976;28;20114;-51
2022/11/17 06:27:10;;;;;;;4.63;2.22;;;6.60;99.90;;;;;;5078406;28;20302;-50
2022/11/17 06:29:37;;;;;;;4.05;2.17;;;6.60;99.90;;;;;;5080384;28;20098;-52
2022/11/17 06:32:12;;;;;;;8.73;2.80;;;6.50;99.90;;;;;;5079131;28;20490;-52
2022/11/17 06:34:39;;;;;;;7.07;2.58;;;6.50;99.90;;;;;;5078645;28;20127;-50
2022/11/17 06:37:06;;;;;;;4.40;2.42;;;6.40;99.90;;;;;;5077144;28;20044;-51
2022/11/17 06:39:32;;;;;;;3.35;2.28;;;6.40;99.90;;;;;;5081743;28;20698;-50
2022/11/17 06:41:59;;;;;;;;;;;6.30;99.90;;;;;;5080567;28;20596;-55
2022/11/17 06:44:25;;;;;;;5.40;2.08;;;6.20;99.90;;;;;;5078777;28;20372;-49
2022/11/17 06:46:52;;;;;;;3.20;1.75;;;6.10;99.90;;;;;;5076940;28;20269;-56
2022/11/17 06:49:19;;;;;;;2.53;1.88;;;6.10;99.90;;;;;;5081973;28;20950;-52
2022/11/17 06:51:46;;;;;;;5.20;2.33;;;6.00;99.90;;;;;;5082333;28;20047;-52
2022/11/17 06:54:13;;;;;;;4.03;2.05;;;6.00;99.90;;;;;;5075429;28;20157;-50
2022/11/17 06:56:41;;;;;;;3.35;1.80;;;6.00;99.90;;;;;;5077642;28;20504;-50
2022/11/17 06:59:07;;;;;;;5.22;2.17;;;5.90;99.90;;;;;;5078470;28;20439;-50
2022/11/17 07:01:35;;;;;;;;;;;6.00;99.90;;;;;;5080563;28;20035;-56
2022/11/17 07:04:02;;;;;;;2.28;1.83;;;6.00;99.90;;;;;;5080433;28;19930;-52
2022/11/17 07:06:29;;;;;;;2.78;1.85;;;6.00;99.90;;;;;;5078024;28;20290;-54
2022/11/17 07:08:56;;;;;;;3.97;2.25;;;6.00;99.90;;;;;;5076877;28;20313;-53
2022/11/17 07:11:22;;;;;;;2.15;1.58;;;6.00;99.90;;;;;;5079408;28;20471;-53
2022/11/17 07:13:49;;;;;;;3.03;1.70;;;6.00;99.90;;;;;;5079554;28;20494;-54
2022/11/17 07:16:18;;;;;;;6.05;2.60;;;6.00;99.90;;;;;;5077561;28;20418;-49
2022/11/17 07:18:51;;;;;;;1.48;1.13;;;5.90;99.90;;;;;;5078389;28;20048;-50
2022/11/17 07:21:18;;;;;;;3.25;1.40;;;5.90;99.90;;;;;;5073325;28;20052;-54
2022/11/17 07:23:44;;;;;;;2.35;1.70;;;5.90;99.90;;;;;;5079005;28;20147;-50
2022/11/17 07:26:13;;;;;;;4.13;2.38;;;5.90;99.90;;;;;;5075726;28;20394;-51
2022/11/17 07:28:39;;;;;;;9.18;1.95;;;5.90;99.90;;;;;;5078483;28;20121;-52
2022/11/17 07:31:07;;;;;;;;;;;5.90;99.90;;;;;;5078412;28;20149;-50
2022/11/17 07:33:34;;;;;;;4.80;3.17;;;5.90;99.90;;;;;;5080256;28;20274;-53
2022/11/17 07:36:06;;;;;;;5.45;2.70;;;5.90;99.90;;;;;;5079231;28;20039;-52
2022/11/17 07:38:34;;;;;;;9.02;2.70;;;6.00;99.90;;;;;;5073965;28;20084;-52
2022/11/17 07:41:02;;;;;;;4.03;2.85;;;6.10;99.90;;;;;;5077143;28;20402;-53
2022/11/17 07:43:29;;;;;;;7.32;3.67;;;6.10;99.90;;;;;;5077991;28;20048;-53
2022/11/17 07:45:56;;;;;;;7.63;3.55;;;6.20;99.90;;;;;;5073349;28;20419;-52
2022/11/17 07:48:23;;;;;;;5.80;4.15;;;6.20;99.90;;;;;;5079536;28;20098;-52
2022/11/17 07:50:50;;;;;;;5.78;3.67;;;6.40;99.90;;;;;;5079079;28;20475;-53
2022/11/17 07:53:16;;;;;;;;;;;6.60;99.90;;;;;;5077202;28;20120;-50
2022/11/17 07:55:43;;;;;;;5.85;3.90;;;6.90;99.90;;;;;;5077983;28;19962;-53
2022/11/17 07:58:10;;;;;;;5.93;3.78;;;7.40;99.90;;;;;;5078108;28;20747;-53
2022/11/17 08:00:37;;;;;;;14.50;3.83;;;7.80;99.90;;;;;;5077259;28;20044;-54
2022/11/17 08:03:05;;;;;;;9.00;3.75;;;8.30;99.90;;;;;;5058592;28;20047;-52
2022/11/17 08:05:35;;;;;;;5.90;3.60;;;8.60;99.90;;;;;;5082597;28;20270;-49
2022/11/17 08:08:09;;;;;;;7.40;3.40;;;8.90;99.90;;;;;;5077147;28;20394;-50
2022/11/17 08:10:36;;;;;;;;;;;9.20;99.90;;;;;;5077942;28;20128;-50
2022/11/17 08:13:03;;;;;;;9.77;4.18;;;9.50;99.90;;;;;;5076492;28;20208;-50
2022/11/17 08:15:30;;;;;;;4.43;3.08;;;9.80;99.90;;;;;;5076355;28;20054;-49
2022/11/17 08:17:59;;;;;;;7.35;3.08;;;10.10;99.90;;;;;;5072552;28;20047;-51
2022/11/17 08:20:28;;;;;;;5.50;3.40;;;10.30;99.90;;;;;;5076878;28;20277;-50
2022/11/17 08:22:55;;;;;;;4.75;2.92;;;10.60;99.90;;;;;;5077105;28;20123;-49
2022/11/17 08:25:25;;;;;;;10.48;3.47;;;10.90;99.90;;;;;;5075713;28;20429;-50
2022/11/17 08:27:56;;;;;;;5.43;2.33;;;11.20;99.90;;;;;;5074221;28;20069;-51
2022/11/17 08:30:24;;;;;;;7.90;2.50;;;11.60;99.90;;;;;;5078914;28;20047;-52
2022/11/17 08:32:52;;;;;;;3.13;1.58;;;11.90;99.90;;;;;;5075835;28;20468;-55
2022/11/17 08:35:21;;;;;;;2.90;2.15;;;12.20;99.90;;;;;;5076238;28;20036;-49
2022/11/17 08:37:48;;;;;;;4.30;2.20;;;12.70;99.90;;;;;;5079930;28;20050;-49
2022/11/17 08:40:17;;;;;;;10.52;1.00;;;13.10;99.90;;;;;;5073804;28;20152;-52
2022/11/17 08:42:44;;;;;;;4.63;1.40;;;13.30;99.90;;;;;;5076820;28;20044;-54
2022/11/17 08:45:12;;;;;;;3.60;1.00;;;13.50;99.90;;;;;;5075764;28;20548;-51
2022/11/17 08:47:38;;;;;;;0.70;0.50;;;13.70;99.90;;;;;;5074724;28;20051;-52
2022/11/17 08:50:05;;;;;;;;;;;13.90;99.90;;;;;;5080138;28;20466;-51
2022/11/17 08:52:32;;;;;;;5.13;0.90;;;14.00;99.90;;;;;;5075984;28;19954;-51
2022/11/17 08:54:59;;;;;;;3.42;0.70;;;14.10;99.90;;;;;;5077665;28;20051;-54
2022/11/17 08:57:28;;;;;;;1.48;0.80;;;14.20;99.90;;;;;;5076469;28;20052;-52
2022/11/17 08:59:55;;;;;;;2.33;0.95;;;14.30;99.90;;;;;;5081333;28;20140;-52
2022/11/17 09:02:23;;;;;;;4.78;1.00;;;14.50;99.90;;;;;;5079629;28;20101;-53
2022/11/17 09:04:50;;;;;;;0.98;0.80;;;14.50;99.90;;;;;;5074599;28;20556;-58
2022/11/17 09:07:17;;;;;;;0.85;0.63;;;14.20;99.90;;;;;;5077141;28;20048;-53
2022/11/17 09:09:45;;;;;;;4.63;1.00;;;13.90;99.90;;;;;;5076760;28;20252;-51
2022/11/17 09:12:11;;;;;;;3.20;0.80;;;13.70;99.90;;;;;;5076988;28;20075;-53
2022/11/17 09:14:38;;;;;;;;;;;13.30;99.90;;;;;;5075694;28;20492;-53
2022/11/17 09:17:05;;;;;;;2.35;1.05;;;13.10;99.90;;;;;;5080369;28;19924;-50
2022/11/17 09:19:32;;;;;;;4.93;1.00;;;12.90;99.90;;;;;;5073912;28;20316;-48
2022/11/17 09:21:59;;;;;;;;;;;12.70;99.90;;;;;;5076582;28;20117;-53
2022/11/17 09:24:26;;;;;;;1.20;0.68;;;12.50;99.90;;;;;;5077172;28;19928;-53
2022/11/17 09:26:53;;;;;;;4.35;0.88;;;12.40;99.90;;;;;;5079407;28;20115;-53
2022/11/17 09:29:20;;;;;;;1.45;0.90;;;12.30;99.90;;;;;;5064466;28;20379;-53
2022/11/17 09:31:47;;;;;;;3.28;1.00;;;12.20;99.90;;;;;;5083026;28;20481;-51
2022/11/17 09:34:15;;;;;;;2.72;1.23;;;12.10;99.90;;;;;;5082886;28;20039;-50
2022/11/17 09:36:42;;;;;;;5.78;2.17;;;12.00;99.90;;;;;;5081073;28;20912;-51
2022/11/17 09:39:09;;;;;;;;;;;11.90;99.90;;;;;;5084926;28;20497;-51
2022/11/17 09:41:48;;;;;;;3.53;1.13;;;11.90;99.90;;;;;;5080031;28;19927;-51
2022/11/17 09:44:29;;;;;;;6.05;1.80;;;11.90;99.90;;;;;;5082688;28;20082;-50
2022/11/17 09:47:21;;;;;;;0.93;0.80;;;11.80;99.90;;;;;;5081151;28;20044;-53
2022/11/17 09:49:59;;;;;;;3.35;1.20;;;11.80;99.90;;;;;;5077371;28;20044;-49
2022/11/17 09:52:45;;;;;;;2.05;1.00;;;11.80;99.90;;;;;;5059657;28;20044;-52
2022/11/17 09:55:30;;;;;;;3.70;0.88;;;11.70;99.90;;;;;;5081186;28;20664;-53
2022/11/17 09:58:10;;;;;;;2.33;1.13;;;11.70;99.90;;;;;;5078515;28;20107;-51
2022/11/17 10:00:39;;;;;;;9.37;1.43;;;11.60;99.90;;;;;;5077409;28;20043;-53
2022/11/17 10:03:20;;;;;;;4.85;1.30;;;11.60;99.90;;;;;;5078928;28;20080;-52
2022/11/17 10:05:48;;;;;;;3.35;1.08;;;11.60;99.90;;;;;;5079280;28;20632;-53
2022/11/17 10:08:20;;;;;;;7.65;1.30;;;11.60;99.90;;;;;;5080529;28;20471;-50
2022/11/17 10:10:49;;;;;;;1.90;0.93;;;11.60;99.90;;;;;;5082305;28;20120;-54
2022/11/17 10:13:36;;;;;;;4.07;1.17;;;11.50;99.90;;;;;;5076766;28;20325;-53
2022/11/17 10:16:06;;;;;;;2.72;1.02;;;11.50;99.90;;;;;;5077298;28;20138;-52
2022/11/17 10:18:38;;;;;;;4.97;0.98;;;11.50;99.90;;;;;;5077835;28;20347;-50
2022/11/17 10:21:07;;;;;;;3.72;1.05;;;11.50;99.90;;;;;;5081354;28;20043;-51
2022/11/17 10:23:42;;;;;;;3.55;1.08;;;11.50;99.90;;;;;;5079862;28;20251;-49
2022/11/17 10:26:14;;;;;;;4.93;1.25;;;11.50;99.90;;;;;;5079045;28;20339;-51
2022/11/17 10:28:41;;;;;;;6.55;1.38;;;11.50;99.90;;;;;;5078063;28;20036;-52
2022/11/17 10:31:17;;;;;;;5.63;1.20;;;11.50;99.90;;;;;;5082592;28;20181;-51
2022/11/17 10:33:47;;;;;;;1.83;1.13;;;11.60;99.90;;;;;;5079560;28;20328;-53
2022/11/17 10:36:25;;;;;;;9.32;2.45;;;11.60;99.90;;;;;;5074483;28;20136;-54
2022/11/17 10:38:54;;;;;;;7.85;1.73;;;11.60;99.90;;;;;;5082622;28;20204;-52
2022/11/17 10:41:38;;;;;;;5.25;1.20;;;11.60;99.90;;;;;;5081570;28;20058;-54
2022/11/17 10:44:12;;;;;;;6.38;1.35;;;11.60;99.90;;;;;;5080897;28;20051;-51
2022/11/17 10:46:59;;;;;;;5.07;1.50;;;11.60;99.90;;;;;;5077794;28;20087;-54
2022/11/17 10:49:33;;;;;;;6.80;1.73;;;11.60;99.90;;;;;;5056613;28;20048;-51
2022/11/17 10:52:12;;;;;;;4.85;1.35;;;11.50;99.90;;;;;;5078835;28;20104;-50
2022/11/17 10:54:39;;;;;;;6.53;1.67;;;11.40;99.90;;;;;;5078485;28;20059;-53
2022/11/17 10:57:18;;;;;;;3.53;1.27;;;11.40;99.90;;;;;;5075709;28;20032;-52
2022/11/17 10:59:49;;;;;;;6.72;1.67;;;11.30;99.90;;;;;;5077307;28;20494;-53
2022/11/17 11:02:28;;;;;;;;;;;11.40;99.90;;;;;;5079272;28;20174;-53
2022/11/17 11:05:06;;;;;;;3.85;1.27;;;11.40;99.90;;;;;;5076630;28;20393;-54
2022/11/17 11:07:32;;;;;;;4.97;1.55;;;11.40;99.90;;;;;;5061391;28;20154;-52
2022/11/17 11:10:02;;;;;;;4.22;1.30;;;11.40;99.90;;;;;;5081270;28;20038;-54
2022/11/17 11:12:44;;;;;;;8.88;1.33;;;11.40;99.90;;;;;;5079440;28;20138;-53
2022/11/17 11:15:19;;;;;;;7.43;1.58;;;11.50;99.90;;;;;;5077693;28;20400;-53
2022/11/17 11:17:45;;;;;;;4.13;1.25;;;11.50;99.90;;;;;;5075488;28;20040;-51
2022/11/17 11:20:16;;;;;;;;;;;11.60;99.90;;;;;;5081479;28;20135;-54
2022/11/17 11:22:56;;;;;;;7.78;1.55;;;11.70;99.90;;;;;;5081691;28;19924;-50
2022/11/17 11:25:37;;;;;;;5.20;1.75;;;11.90;99.90;;;;;;5077141;28;20505;-54
2022/11/17 11:28:38;;;;;;;5.70;1.20;;;12.00;99.90;;;;;;5078591;28;20032;-54
2022/11/17 11:31:32;;;;;;;5.82;1.45;;;12.20;99.90;;;;;;5072949;28;20662;-50
2022/11/17 11:34:26;;;;;;;8.38;1.27;;;12.30;99.90;;;;;;5076110;28;20457;-53
2022/11/17 11:36:59;;;;;;;7.38;1.00;;;12.40;99.90;;;;;;5071564;28;20142;-55
2022/11/17 11:39:38;;;;;;;3.83;1.10;;;12.40;99.90;;;;;;5077813;28;20067;-55
2022/11/17 11:42:53;;;;;;;7.30;1.10;;;12.40;99.90;;;;;;5077017;28;20048;-51
2022/11/17 11:45:33;;;;;;;2.75;0.98;;;12.40;99.90;;;;;;5068540;28;20109;-51
2022/11/17 11:48:14;;;;;;;5.40;1.13;;;12.40;99.90;;;;;;5076116;28;21018;-53
2022/11/17 11:50:52;;;;;;;8.55;1.48;;;12.40;99.90;;;;;;5074789;28;20766;-55
2022/11/17 11:53:41;;;;;;;6.30;1.50;;;12.40;99.90;;;;;;5076921;28;20044;-54
2022/11/17 11:56:37;;;;;;;7.22;1.40;;;12.50;99.90;;;;;;5078019;28;20509;-54
2022/11/17 11:59:11;;;;;;;3.25;1.20;;;12.70;99.90;;;;;;5081093;28;20043;-50
2022/11/17 12:01:47;;;;;;;5.95;1.27;;;13.00;99.90;;;;;;5079020;28;20123;-53
2022/11/17 12:04:42;;;;;;;4.47;1.40;;;13.20;99.90;;;;;;5077436;28;20279;-52
2022/11/17 12:07:18;;;;;;;3.72;1.15;;;13.30;99.90;;;;;;5078398;28;20498;-53
2022/11/17 12:09:53;;;;;;;5.88;1.20;;;13.50;99.90;;;;;;5079346;28;20375;-53
2022/11/17 12:12:34;;;;;;;8.98;1.45;;;13.60;99.90;;;;;;5078688;28;20095;-54
2022/11/17 12:15:31;;;;;;;5.82;1.30;;;13.70;99.90;;;;;;5076541;28;20096;-55
2022/11/17 12:18:06;;;;;;;9.05;1.27;;;13.80;99.90;;;;;;5077280;28;20068;-53
2022/11/17 12:20:34;;;;;;;5.00;1.60;;;13.80;99.90;;;;;;5078898;28;20493;-52
2022/11/17 12:23:06;;;;;;;4.72;1.13;;;13.90;99.90;;;;;;5077491;28;20117;-53
2022/11/17 12:25:35;;;;;;;3.13;1.13;;;13.90;99.90;;;;;;5076668;28;20048;-53
2022/11/17 12:28:37;;;;;;;4.68;1.40;;;14.00;99.90;;;;;;5074850;28;20256;-55
2022/11/17 12:31:11;;;;;;;5.10;0.93;;;14.00;99.90;;;;;;5074018;28;20035;-55
2022/11/17 12:33:53;;;;;;;1.95;1.08;;;14.00;99.90;;;;;;5079653;28;20048;-53
2022/11/17 12:36:22;;;;;;;2.90;0.77;;;14.10;99.90;;;;;;5076199;28;20417;-54
2022/11/17 12:39:01;;;;;;;4.23;1.10;;;14.10;99.90;;;;;;5077479;28;20062;-54
2022/11/17 12:41:49;;;;;;;2.20;0.57;;;14.10;99.90;;;;;;5075956;28;21136;-55
2022/11/17 12:44:49;;;;;;;3.90;1.08;;;14.20;99.90;;;;;;5078719;28;20045;-54
2022/11/17 12:47:19;;;;;;;7.38;1.20;;;14.40;99.90;;;;;;5077053;28;20062;-55
2022/11/17 12:50:17;;;;;;;4.65;1.33;;;14.50;99.90;;;;;;5075051;28;20044;-56
2022/11/17 12:53:06;;;;;;;2.53;0.85;;;14.60;99.90;;;;;;5076029;28;20121;-56
2022/11/17 12:55:33;;;;;;;3.88;1.00;;;14.70;99.90;;;;;;5079803;28;20551;-57
2022/11/17 12:58:07;;;;;;;3.13;1.13;;;14.80;99.90;;;;;;5080098;28;20044;-56
2022/11/17 13:01:15;;;;;;;4.10;1.25;;;14.90;99.90;;;;;;5077826;28;20433;-56
2022/11/17 13:04:05;;;;;;;1.52;0.77;;;14.90;99.90;;;;;;5082345;28;20166;-55
2022/11/17 13:06:32;;;;;;;2.97;1.02;;;14.90;99.90;;;;;;5083322;28;20509;-56
2022/11/17 13:09:11;;;;;;;2.33;0.95;;;15.00;99.90;;;;;;5083847;28;20051;-53
2022/11/17 13:11:38;;;;;;;3.45;1.13;;;15.30;99.90;;;;;;5085010;28;20259;-56
2022/11/17 13:14:05;;;;;;;;;;;15.40;99.90;;;;;;5085085;28;20040;-55
2022/11/17 13:16:36;;;;;;;6.40;1.38;;;15.50;99.90;;;;;;5078934;28;20429;-54
2022/11/17 13:19:03;;;;;;;5.80;1.27;;;15.60;99.90;;;;;;5060513;28;20052;-53
2022/11/17 13:21:31;;;;;;;3.25;0.77;;;15.40;99.90;;;;;;5078984;28;20118;-54
2022/11/17 13:23:59;;;;;;;1.63;1.27;;;15.30;99.90;;;;;;5081083;28;20129;-54
2022/11/17 13:26:37;;;;;;;4.10;1.15;;;15.10;99.90;;;;;;5078489;28;20517;-54
2022/11/17 13:29:06;;;;;;;3.45;1.58;;;15.00;99.90;;;;;;5077142;28;20337;-52
2022/11/17 13:31:33;;;;;;;7.57;1.30;;;14.80;99.90;;;;;;5076548;28;20323;-51
2022/11/17 13:34:14;;;;;;;2.70;1.05;;;14.70;99.90;;;;;;5079099;28;20123;-54
2022/11/17 13:36:56;;;;;;;3.72;1.00;;;14.50;99.90;;;;;;5080389;28;20295;-56
2022/11/17 13:39:25;;;;;;;6.25;1.20;;;14.40;99.90;;;;;;5078176;28;20097;-53
2022/11/17 13:41:55;;;;;;;4.72;1.00;;;14.30;99.90;;;;;;5081277;28;20093;-52
2022/11/17 13:44:24;;;;;;;4.22;1.23;;;14.40;99.90;;;;;;5083141;28;20061;-55
2022/11/17 13:46:50;;;;;;;7.35;1.25;;;14.50;99.90;;;;;;5077549;28;20052;-54
2022/11/17 13:49:37;;;;;;;;;;;14.70;99.90;;;;;;5064599;28;20040;-52
2022/11/17 13:52:11;;;;;;;5.40;1.23;;;14.90;99.90;;;;;;5079262;28;19930;-51
2022/11/17 13:54:42;;;;;;;5.30;1.30;;;15.10;99.90;;;;;;5079106;28;20179;-53
2022/11/17 13:57:25;;;;;;;5.35;1.85;;;15.30;99.90;;;;;;5075227;28;20474;-53